Adell, Wisconsin
Current Conditions -  °F | °C
As of 10:53 PM on Friday 19 Dec 2014 (Local Time) from KSBM Reporting Station
Overcast Overcast  
Wind Chill: 28°   Ceiling: 2700
Heat Index: 28°   Visibility: 10mi
Dew Point: 21°   Wind: 3mph
Humidity: 75%   Direction: 340°NNW
Pressure: 30.25"   Gusts: NA
Location:  43.62°N, 87.95°W
Report Text: KSBM 200453Z AUTO 34003KT 10SM OVC027 M02/M06 A3025 RMK AO2 SLP255 T10221061
Loading
Personal Weather Stations






























Interactive Weather Map New forecast layout! Learn more

10-Day Weather Forecast

Advertisements
Track Severe Weather on mobile